sensor_id;sensor_type;location;lat;lon;timestamp;temperature;humidity
22966;DHT22;11649;48.090;9.754;2023-06-26T00:00:32;16.80;98.40
22966;DHT22;11649;48.090;9.754;2023-06-26T00:02:59;16.70;98.20
22966;DHT22;11649;48.090;9.754;2023-06-26T00:05:26;16.80;97.90
22966;DHT22;11649;48.090;9.754;2023-06-26T00:07:54;16.80;97.70
22966;DHT22;11649;48.090;9.754;2023-06-26T00:10:21;17.30;97.40
22966;DHT22;11649;48.090;9.754;2023-06-26T00:12:48;16.70;97.40
22966;DHT22;11649;48.090;9.754;2023-06-26T00:15:15;16.60;97.50
22966;DHT22;11649;48.090;9.754;2023-06-26T00:17:41;16.60;97.70
22966;DHT22;11649;48.090;9.754;2023-06-26T00:20:09;18.10;98.80
22966;DHT22;11649;48.090;9.754;2023-06-26T00:22:35;16.60;97.90
22966;DHT22;11649;48.090;9.754;2023-06-26T00:25:02;16.50;97.70
22966;DHT22;11649;48.090;9.754;2023-06-26T00:27:30;16.60;98.30
22966;DHT22;11649;48.090;9.754;2023-06-26T00:30:15;17.20;98.00
22966;DHT22;11649;48.090;9.754;2023-06-26T00:32:42;16.50;97.90
22966;DHT22;11649;48.090;9.754;2023-06-26T00:35:09;16.90;98.60
22966;DHT22;11649;48.090;9.754;2023-06-26T00:37:36;16.80;98.70
22966;DHT22;11649;48.090;9.754;2023-06-26T00:40:03;16.80;98.80
22966;DHT22;11649;48.090;9.754;2023-06-26T00:42:31;16.60;98.60
22966;DHT22;11649;48.090;9.754;2023-06-26T00:44:58;16.50;98.50
22966;DHT22;11649;48.090;9.754;2023-06-26T00:47:26;16.50;98.90
22966;DHT22;11649;48.090;9.754;2023-06-26T00:49:54;16.30;98.80
22966;DHT22;11649;48.090;9.754;2023-06-26T00:52:22;16.50;98.70
22966;DHT22;11649;48.090;9.754;2023-06-26T00:54:50;17.10;99.70
22966;DHT22;11649;48.090;9.754;2023-06-26T00:57:18;16.60;99.80
22966;DHT22;11649;48.090;9.754;2023-06-26T00:59:45;17.00;99.90
22966;DHT22;11649;48.090;9.754;2023-06-26T01:02:12;16.60;99.90
22966;DHT22;11649;48.090;9.754;2023-06-26T01:04:39;16.30;99.70
22966;DHT22;11649;48.090;9.754;2023-06-26T01:07:14;16.40;99.40
22966;DHT22;11649;48.090;9.754;2023-06-26T01:09:42;16.40;99.50
22966;DHT22;11649;48.090;9.754;2023-06-26T01:12:09;16.30;98.40
22966;DHT22;11649;48.090;9.754;2023-06-26T01:14:36;16.20;98.10
22966;DHT22;11649;48.090;9.754;2023-06-26T01:17:04;16.70;98.60
22966;DHT22;11649;48.090;9.754;2023-06-26T01:19:31;16.30;99.30
22966;DHT22;11649;48.090;9.754;2023-06-26T01:25:40;15.90;99.90
22966;DHT22;11649;48.090;9.754;2023-06-26T01:28:10;15.90;99.90
22966;DHT22;11649;48.090;9.754;2023-06-26T01:30:41;15.80;99.90
22966;DHT22;11649;48.090;9.754;2023-06-26T01:33:09;15.70;99.90
22966;DHT22;11649;48.090;9.754;2023-06-26T01:35:37;15.60;99.90
22966;DHT22;11649;48.090;9.754;2023-06-26T01:38:20;16.30;99.90
22966;DHT22;11649;48.090;9.754;2023-06-26T01:40:47;16.00;99.90
22966;DHT22;11649;48.090;9.754;2023-06-26T01:54:35;16.00;99.90
22966;DHT22;11649;48.090;9.754;2023-06-26T01:57:04;16.10;99.90
22966;DHT22;11649;48.090;9.754;2023-06-26T01:59:33;15.90;99.90
22966;DHT22;11649;48.090;9.754;2023-06-26T02:02:07;16.00;99.90
22966;DHT22;11649;48.090;9.754;2023-06-26T02:04:34;15.80;99.90
22966;DHT22;11649;48.090;9.754;2023-06-26T02:07:01;16.80;99.90
22966;DHT22;11649;48.090;9.754;2023-06-26T02:09:28;15.90;99.90
22966;DHT22;11649;48.090;9.754;2023-06-26T02:11:55;16.40;99.90
22966;DHT22;11649;48.090;9.754;2023-06-26T02:14:21;16.30;99.90
22966;DHT22;11649;48.090;9.754;2023-06-26T02:16:48;15.70;99.90
22966;DHT22;11649;48.090;9.754;2023-06-26T02:19:15;15.60;99.90
22966;DHT22;11649;48.090;9.754;2023-06-26T02:21:51;15.90;99.90
22966;DHT22;11649;48.090;9.754;2023-06-26T02:24:17;15.90;99.90
22966;DHT22;11649;48.090;9.754;2023-06-26T02:26:44;16.10;99.90
22966;DHT22;11649;48.090;9.754;2023-06-26T02:29:12;15.70;99.90
22966;DHT22;11649;48.090;9.754;2023-06-26T02:31:39;15.60;99.90
22966;DHT22;11649;48.090;9.754;2023-06-26T02:34:06;15.70;99.90
22966;DHT22;11649;48.090;9.754;2023-06-26T02:36:57;16.20;99.90
22966;DHT22;11649;48.090;9.754;2023-06-26T02:39:25;15.60;99.90
22966;DHT22;11649;48.090;9.754;2023-06-26T02:41:51;15.60;99.90
22966;DHT22;11649;48.090;9.754;2023-06-26T02:44:18;15.60;99.90
22966;DHT22;11649;48.090;9.754;2023-06-26T02:46:45;15.60;99.90
22966;DHT22;11649;48.090;9.754;2023-06-26T02:49:12;15.50;99.90
22966;DHT22;11649;48.090;9.754;2023-06-26T02:51:39;15.20;99.90
22966;DHT22;11649;48.090;9.754;2023-06-26T02:54:06;15.80;99.90
22966;DHT22;11649;48.090;9.754;2023-06-26T02:56:33;16.00;99.90
22966;DHT22;11649;48.090;9.754;2023-06-26T02:59:02;16.00;99.90
22966;DHT22;11649;48.090;9.754;2023-06-26T03:01:29;16.30;99.90
22966;DHT22;11649;48.090;9.754;2023-06-26T03:03:56;16.60;99.90
22966;DHT22;11649;48.090;9.754;2023-06-26T03:06:22;15.40;99.90
22966;DHT22;11649;48.090;9.754;2023-06-26T03:08:49;15.30;99.90
22966;DHT22;11649;48.090;9.754;2023-06-26T03:11:16;16.30;99.90
22966;DHT22;11649;48.090;9.754;2023-06-26T03:13:43;15.50;99.90
22966;DHT22;11649;48.090;9.754;2023-06-26T03:16:10;15.80;99.90
22966;DHT22;11649;48.090;9.754;2023-06-26T03:18:36;15.20;99.90
22966;DHT22;11649;48.090;9.754;2023-06-26T03:21:04;15.20;99.90
22966;DHT22;11649;48.090;9.754;2023-06-26T03:23:30;15.10;99.90
22966;DHT22;11649;48.090;9.754;2023-06-26T03:25:57;15.20;99.90
22966;DHT22;11649;48.090;9.754;2023-06-26T03:28:24;15.60;99.90
22966;DHT22;11649;48.090;9.754;2023-06-26T03:30:51;15.40;99.90
22966;DHT22;11649;48.090;9.754;2023-06-26T03:33:18;15.70;99.90
22966;DHT22;11649;48.090;9.754;2023-06-26T03:35:44;15.60;99.90
22966;DHT22;11649;48.090;9.754;2023-06-26T03:38:11;15.30;99.90
22966;DHT22;11649;48.090;9.754;2023-06-26T03:40:38;15.40;99.90
22966;DHT22;11649;48.090;9.754;2023-06-26T03:43:05;15.50;99.90
22966;DHT22;11649;48.090;9.754;2023-06-26T03:45:32;16.30;99.90
22966;DHT22;11649;48.090;9.754;2023-06-26T03:47:59;15.70;99.90
22966;DHT22;11649;48.090;9.754;2023-06-26T03:50:26;15.50;99.90
22966;DHT22;11649;48.090;9.754;2023-06-26T03:52:53;15.90;99.90
22966;DHT22;11649;48.090;9.754;2023-06-26T03:55:21;15.90;99.90
22966;DHT22;11649;48.090;9.754;2023-06-26T03:57:49;15.70;99.90
22966;DHT22;11649;48.090;9.754;2023-06-26T04:00:16;15.50;99.90
22966;DHT22;11649;48.090;9.754;2023-06-26T04:02:43;15.70;99.90
22966;DHT22;11649;48.090;9.754;2023-06-26T04:05:10;15.70;99.90
22966;DHT22;11649;48.090;9.754;2023-06-26T04:07:37;15.50;99.90
22966;DHT22;11649;48.090;9.754;2023-06-26T04:10:05;15.70;99.90
22966;DHT22;11649;48.090;9.754;2023-06-26T04:12:33;15.80;99.90
22966;DHT22;11649;48.090;9.754;2023-06-26T04:15:00;16.00;99.90
22966;DHT22;11649;48.090;9.754;2023-06-26T04:17:26;15.90;99.90
22966;DHT22;11649;48.090;9.754;2023-06-26T04:19:53;16.10;99.90
22966;DHT22;11649;48.090;9.754;2023-06-26T04:22:20;16.20;99.90
22966;DHT22;11649;48.090;9.754;2023-06-26T04:24:47;16.00;99.90
22966;DHT22;11649;48.090;9.754;2023-06-26T04:27:13;16.00;99.90
22966;DHT22;11649;48.090;9.754;2023-06-26T04:29:40;15.60;99.90
22966;DHT22;11649;48.090;9.754;2023-06-26T04:32:07;16.80;99.90
22966;DHT22;11649;48.090;9.754;2023-06-26T04:34:34;16.60;99.90
22966;DHT22;11649;48.090;9.754;2023-06-26T04:37:02;16.80;99.90
22966;DHT22;11649;48.090;9.754;2023-06-26T04:39:32;16.20;99.90
22966;DHT22;11649;48.090;9.754;2023-06-26T04:41:59;16.60;99.90
22966;DHT22;11649;48.090;9.754;2023-06-26T04:44:25;16.60;99.90
22966;DHT22;11649;48.090;9.754;2023-06-26T04:46:52;16.90;99.90
22966;DHT22;11649;48.090;9.754;2023-06-26T04:49:19;16.90;99.90
22966;DHT22;11649;48.090;9.754;2023-06-26T04:51:47;16.60;99.90
22966;DHT22;11649;48.090;9.754;2023-06-26T04:54:15;16.80;99.90
22966;DHT22;11649;48.090;9.754;2023-06-26T04:56:42;16.80;99.90
22966;DHT22;11649;48.090;9.754;2023-06-26T04:59:10;16.80;99.90
22966;DHT22;11649;48.090;9.754;2023-06-26T05:01:41;16.80;99.90
22966;DHT22;11649;48.090;9.754;2023-06-26T05:04:08;17.10;99.90
22966;DHT22;11649;48.090;9.754;2023-06-26T05:06:35;17.00;99.90
22966;DHT22;11649;48.090;9.754;2023-06-26T05:09:01;17.00;99.90
22966;DHT22;11649;48.090;9.754;2023-06-26T05:11:28;17.10;99.90
22966;DHT22;11649;48.090;9.754;2023-06-26T05:13:55;17.20;99.90
22966;DHT22;11649;48.090;9.754;2023-06-26T05:16:22;17.30;99.90
22966;DHT22;11649;48.090;9.754;2023-06-26T05:18:49;17.50;99.60
22966;DHT22;11649;48.090;9.754;2023-06-26T05:21:21;17.60;99.30
22966;DHT22;11649;48.090;9.754;2023-06-26T05:23:48;17.60;98.90
22966;DHT22;11649;48.090;9.754;2023-06-26T05:26:16;17.70;98.80
22966;DHT22;11649;48.090;9.754;2023-06-26T05:28:43;17.80;98.50
22966;DHT22;11649;48.090;9.754;2023-06-26T05:31:15;17.90;98.40
22966;DHT22;11649;48.090;9.754;2023-06-26T05:33:46;18.00;98.40
22966;DHT22;11649;48.090;9.754;2023-06-26T05:36:15;18.10;97.90
22966;DHT22;11649;48.090;9.754;2023-06-26T05:38:43;18.10;97.80
22966;DHT22;11649;48.090;9.754;2023-06-26T05:41:10;18.20;98.00
22966;DHT22;11649;48.090;9.754;2023-06-26T05:43:37;18.30;98.10
22966;DHT22;11649;48.090;9.754;2023-06-26T05:46:03;19.10;97.80
22966;DHT22;11649;48.090;9.754;2023-06-26T05:48:30;18.50;97.80
22966;DHT22;11649;48.090;9.754;2023-06-26T05:50:57;18.80;97.90
22966;DHT22;11649;48.090;9.754;2023-06-26T05:53:24;18.60;97.60
22966;DHT22;11649;48.090;9.754;2023-06-26T05:55:51;18.70;97.70
22966;DHT22;11649;48.090;9.754;2023-06-26T05:58:20;18.80;97.10
22966;DHT22;11649;48.090;9.754;2023-06-26T06:00:48;19.00;96.50
22966;DHT22;11649;48.090;9.754;2023-06-26T06:03:14;19.00;97.30
22966;DHT22;11649;48.090;9.754;2023-06-26T06:05:41;19.10;96.90
22966;DHT22;11649;48.090;9.754;2023-06-26T06:08:08;19.30;95.90
22966;DHT22;11649;48.090;9.754;2023-06-26T06:10:35;19.30;95.20
22966;DHT22;11649;48.090;9.754;2023-06-26T06:13:02;19.40;95.40
22966;DHT22;11649;48.090;9.754;2023-06-26T06:15:29;19.40;94.80
22966;DHT22;11649;48.090;9.754;2023-06-26T06:17:56;19.50;94.60
22966;DHT22;11649;48.090;9.754;2023-06-26T06:20:24;19.70;94.50
22966;DHT22;11649;48.090;9.754;2023-06-26T06:22:51;19.70;93.90
22966;DHT22;11649;48.090;9.754;2023-06-26T06:25:27;19.90;93.40
22966;DHT22;11649;48.090;9.754;2023-06-26T06:27:54;19.90;92.40
22966;DHT22;11649;48.090;9.754;2023-06-26T06:30:21;19.90;92.00
22966;DHT22;11649;48.090;9.754;2023-06-26T06:33:08;19.90;93.30
22966;DHT22;11649;48.090;9.754;2023-06-26T06:35:34;20.00;93.10
22966;DHT22;11649;48.090;9.754;2023-06-26T06:38:01;20.10;92.20
22966;DHT22;11649;48.090;9.754;2023-06-26T06:40:28;20.10;93.20
22966;DHT22;11649;48.090;9.754;2023-06-26T06:42:55;20.20;92.70
22966;DHT22;11649;48.090;9.754;2023-06-26T06:45:21;20.30;92.00
22966;DHT22;11649;48.090;9.754;2023-06-26T06:47:48;20.50;92.20
22966;DHT22;11649;48.090;9.754;2023-06-26T06:50:15;20.50;92.20
22966;DHT22;11649;48.090;9.754;2023-06-26T06:52:45;20.60;90.70
22966;DHT22;11649;48.090;9.754;2023-06-26T06:55:12;20.70;91.10
22966;DHT22;11649;48.090;9.754;2023-06-26T06:57:40;20.80;90.00
22966;DHT22;11649;48.090;9.754;2023-06-26T07:00:09;20.90;89.20
22966;DHT22;11649;48.090;9.754;2023-06-26T07:02:44;21.00;89.70
22966;DHT22;11649;48.090;9.754;2023-06-26T07:05:12;21.10;90.10
22966;DHT22;11649;48.090;9.754;2023-06-26T07:07:39;21.20;90.20
22966;DHT22;11649;48.090;9.754;2023-06-26T07:12:35;21.40;89.60
22966;DHT22;11649;48.090;9.754;2023-06-26T07:15:16;21.50;86.60
22966;DHT22;11649;48.090;9.754;2023-06-26T07:17:43;21.60;87.70
22966;DHT22;11649;48.090;9.754;2023-06-26T07:20:10;21.70;86.20
22966;DHT22;11649;48.090;9.754;2023-06-26T07:22:42;21.80;87.30
22966;DHT22;11649;48.090;9.754;2023-06-26T07:25:11;21.80;82.60
22966;DHT22;11649;48.090;9.754;2023-06-26T07:27:38;21.90;81.50
22966;DHT22;11649;48.090;9.754;2023-06-26T07:30:06;22.00;80.20
22966;DHT22;11649;48.090;9.754;2023-06-26T07:32:36;22.20;81.20
22966;DHT22;11649;48.090;9.754;2023-06-26T07:35:03;22.30;81.00
22966;DHT22;11649;48.090;9.754;2023-06-26T07:37:30;22.40;79.30
22966;DHT22;11649;48.090;9.754;2023-06-26T07:39:57;22.50;79.80
22966;DHT22;11649;48.090;9.754;2023-06-26T07:42:24;22.60;79.00
22966;DHT22;11649;48.090;9.754;2023-06-26T07:44:50;22.60;78.60
22966;DHT22;11649;48.090;9.754;2023-06-26T07:47:17;22.60;79.10
22966;DHT22;11649;48.090;9.754;2023-06-26T07:49:44;22.60;78.10
22966;DHT22;11649;48.090;9.754;2023-06-26T07:52:11;22.70;78.00
22966;DHT22;11649;48.090;9.754;2023-06-26T07:54:38;22.80;80.60
22966;DHT22;11649;48.090;9.754;2023-06-26T07:57:05;22.90;78.90
22966;DHT22;11649;48.090;9.754;2023-06-26T07:59:39;23.10;76.30
22966;DHT22;11649;48.090;9.754;2023-06-26T08:02:06;23.20;76.00
22966;DHT22;11649;48.090;9.754;2023-06-26T08:04:33;23.30;73.90
22966;DHT22;11649;48.090;9.754;2023-06-26T08:07:01;23.30;73.80
22966;DHT22;11649;48.090;9.754;2023-06-26T08:09:29;23.30;76.00
22966;DHT22;11649;48.090;9.754;2023-06-26T08:11:57;23.50;74.40
22966;DHT22;11649;48.090;9.754;2023-06-26T08:14:24;23.60;72.60
22966;DHT22;11649;48.090;9.754;2023-06-26T08:16:51;23.60;70.90
22966;DHT22;11649;48.090;9.754;2023-06-26T08:19:18;23.70;68.70
22966;DHT22;11649;48.090;9.754;2023-06-26T08:21:46;23.80;67.90
22966;DHT22;11649;48.090;9.754;2023-06-26T08:24:14;24.00;65.80
22966;DHT22;11649;48.090;9.754;2023-06-26T08:26:46;24.10;66.30
22966;DHT22;11649;48.090;9.754;2023-06-26T08:29:13;24.20;64.90
22966;DHT22;11649;48.090;9.754;2023-06-26T08:31:41;24.20;64.10
22966;DHT22;11649;48.090;9.754;2023-06-26T08:34:08;24.30;63.10
22966;DHT22;11649;48.090;9.754;2023-06-26T08:36:35;24.30;63.60
22966;DHT22;11649;48.090;9.754;2023-06-26T08:39:02;24.30;63.40
22966;DHT22;11649;48.090;9.754;2023-06-26T08:41:31;24.60;63.90
22966;DHT22;11649;48.090;9.754;2023-06-26T08:43:58;24.70;62.70
22966;DHT22;11649;48.090;9.754;2023-06-26T08:46:28;24.70;61.30
22966;DHT22;11649;48.090;9.754;2023-06-26T08:48:56;24.70;58.20
22966;DHT22;11649;48.090;9.754;2023-06-26T08:51:28;24.80;57.70
22966;DHT22;11649;48.090;9.754;2023-06-26T08:53:58;25.10;57.30
22966;DHT22;11649;48.090;9.754;2023-06-26T08:56:28;25.10;56.50
22966;DHT22;11649;48.090;9.754;2023-06-26T08:58:58;25.20;57.50
22966;DHT22;11649;48.090;9.754;2023-06-26T09:01:26;25.30;54.10
22966;DHT22;11649;48.090;9.754;2023-06-26T09:03:52;25.40;54.50
22966;DHT22;11649;48.090;9.754;2023-06-26T09:06:19;25.40;54.10
22966;DHT22;11649;48.090;9.754;2023-06-26T09:08:46;25.50;54.00
22966;DHT22;11649;48.090;9.754;2023-06-26T09:11:13;25.60;52.70
22966;DHT22;11649;48.090;9.754;2023-06-26T09:13:41;25.80;51.00
22966;DHT22;11649;48.090;9.754;2023-06-26T09:16:08;25.90;50.50
22966;DHT22;11649;48.090;9.754;2023-06-26T09:18:35;25.80;50.60
22966;DHT22;11649;48.090;9.754;2023-06-26T09:21:08;25.90;51.30
22966;DHT22;11649;48.090;9.754;2023-06-26T09:23:36;25.80;50.30
22966;DHT22;11649;48.090;9.754;2023-06-26T09:26:06;25.90;51.40
22966;DHT22;11649;48.090;9.754;2023-06-26T09:28:34;25.90;51.10
22966;DHT22;11649;48.090;9.754;2023-06-26T09:31:06;25.90;50.50
22966;DHT22;11649;48.090;9.754;2023-06-26T09:33:36;25.90;51.40
22966;DHT22;11649;48.090;9.754;2023-06-26T09:36:07;26.00;52.70
22966;DHT22;11649;48.090;9.754;2023-06-26T09:38:35;26.10;51.20
22966;DHT22;11649;48.090;9.754;2023-06-26T09:41:03;26.10;50.60
22966;DHT22;11649;48.090;9.754;2023-06-26T09:43:30;26.00;50.20
22966;DHT22;11649;48.090;9.754;2023-06-26T09:46:00;26.00;49.90
22966;DHT22;11649;48.090;9.754;2023-06-26T09:48:28;26.10;49.50
22966;DHT22;11649;48.090;9.754;2023-06-26T09:50:55;26.20;50.40
22966;DHT22;11649;48.090;9.754;2023-06-26T09:53:38;26.40;48.60
22966;DHT22;11649;48.090;9.754;2023-06-26T09:56:06;26.50;47.80
22966;DHT22;11649;48.090;9.754;2023-06-26T09:58:33;26.50;48.10
22966;DHT22;11649;48.090;9.754;2023-06-26T10:01:02;26.40;47.60
22966;DHT22;11649;48.090;9.754;2023-06-26T10:03:29;26.40;47.60
22966;DHT22;11649;48.090;9.754;2023-06-26T10:05:56;26.40;47.70
22966;DHT22;11649;48.090;9.754;2023-06-26T10:08:23;26.50;47.10
22966;DHT22;11649;48.090;9.754;2023-06-26T10:10:51;26.50;47.60
22966;DHT22;11649;48.090;9.754;2023-06-26T10:13:22;26.50;48.30
22966;DHT22;11649;48.090;9.754;2023-06-26T10:15:51;26.60;47.30
22966;DHT22;11649;48.090;9.754;2023-06-26T10:18:21;26.70;46.30
22966;DHT22;11649;48.090;9.754;2023-06-26T10:20:54;26.80;47.10
22966;DHT22;11649;48.090;9.754;2023-06-26T10:23:23;26.90;45.90
22966;DHT22;11649;48.090;9.754;2023-06-26T10:25:51;26.80;45.60
22966;DHT22;11649;48.090;9.754;2023-06-26T10:28:20;26.90;46.40
22966;DHT22;11649;48.090;9.754;2023-06-26T10:30:50;26.90;46.20
22966;DHT22;11649;48.090;9.754;2023-06-26T10:33:18;27.00;46.00
22966;DHT22;11649;48.090;9.754;2023-06-26T10:35:46;27.10;46.40
22966;DHT22;11649;48.090;9.754;2023-06-26T10:38:12;27.20;45.10
22966;DHT22;11649;48.090;9.754;2023-06-26T10:40:43;27.20;44.50
22966;DHT22;11649;48.090;9.754;2023-06-26T10:43:12;27.20;44.40
22966;DHT22;11649;48.090;9.754;2023-06-26T10:45:44;27.20;46.20
22966;DHT22;11649;48.090;9.754;2023-06-26T10:48:15;27.30;46.20
22966;DHT22;11649;48.090;9.754;2023-06-26T10:50:42;27.30;46.70
22966;DHT22;11649;48.090;9.754;2023-06-26T10:56:00;27.40;44.60
22966;DHT22;11649;48.090;9.754;2023-06-26T11:03:38;27.40;45.40
22966;DHT22;11649;48.090;9.754;2023-06-26T11:06:13;27.40;44.80
22966;DHT22;11649;48.090;9.754;2023-06-26T11:08:48;27.40;44.00
22966;DHT22;11649;48.090;9.754;2023-06-26T11:11:16;27.50;45.20
22966;DHT22;11649;48.090;9.754;2023-06-26T11:13:45;27.60;44.30
22966;DHT22;11649;48.090;9.754;2023-06-26T11:16:13;27.70;46.00
22966;DHT22;11649;48.090;9.754;2023-06-26T11:18:41;27.90;45.30
22966;DHT22;11649;48.090;9.754;2023-06-26T11:21:11;28.00;45.10
22966;DHT22;11649;48.090;9.754;2023-06-26T11:23:40;28.10;45.60
22966;DHT22;11649;48.090;9.754;2023-06-26T11:26:17;28.20;44.40
22966;DHT22;11649;48.090;9.754;2023-06-26T11:28:53;28.40;43.80
22966;DHT22;11649;48.090;9.754;2023-06-26T11:31:33;28.30;43.50
22966;DHT22;11649;48.090;9.754;2023-06-26T11:34:02;28.20;44.50
22966;DHT22;11649;48.090;9.754;2023-06-26T11:36:30;28.10;44.20
22966;DHT22;11649;48.090;9.754;2023-06-26T11:39:00;28.10;44.60
22966;DHT22;11649;48.090;9.754;2023-06-26T11:41:29;28.00;45.60
22966;DHT22;11649;48.090;9.754;2023-06-26T11:44:03;27.90;44.40
22966;DHT22;11649;48.090;9.754;2023-06-26T11:46:31;27.80;45.70
22966;DHT22;11649;48.090;9.754;2023-06-26T11:48:58;27.70;46.10
22966;DHT22;11649;48.090;9.754;2023-06-26T11:51:28;27.60;45.80
22966;DHT22;11649;48.090;9.754;2023-06-26T11:53:55;27.50;46.00
22966;DHT22;11649;48.090;9.754;2023-06-26T11:56:22;27.50;46.30
22966;DHT22;11649;48.090;9.754;2023-06-26T11:59:03;27.50;47.20
22966;DHT22;11649;48.090;9.754;2023-06-26T12:01:41;27.80;47.10
22966;DHT22;11649;48.090;9.754;2023-06-26T12:04:09;27.90;46.10
22966;DHT22;11649;48.090;9.754;2023-06-26T12:06:42;28.20;45.60
22966;DHT22;11649;48.090;9.754;2023-06-26T12:09:10;28.20;45.60
22966;DHT22;11649;48.090;9.754;2023-06-26T12:11:41;28.20;44.80
22966;DHT22;11649;48.090;9.754;2023-06-26T12:14:10;28.10;45.50
22966;DHT22;11649;48.090;9.754;2023-06-26T12:16:37;28.00;45.40
22966;DHT22;11649;48.090;9.754;2023-06-26T12:19:07;27.80;44.70
22966;DHT22;11649;48.090;9.754;2023-06-26T12:24:04;27.80;46.90
22966;DHT22;11649;48.090;9.754;2023-06-26T12:26:31;28.00;45.90
22966;DHT22;11649;48.090;9.754;2023-06-26T12:29:08;28.10;45.90
22966;DHT22;11649;48.090;9.754;2023-06-26T12:31:35;28.20;47.30
22966;DHT22;11649;48.090;9.754;2023-06-26T12:34:09;28.40;47.00
22966;DHT22;11649;48.090;9.754;2023-06-26T12:36:44;28.20;47.20
22966;DHT22;11649;48.090;9.754;2023-06-26T12:39:12;28.20;45.60
22966;DHT22;11649;48.090;9.754;2023-06-26T12:41:53;28.00;46.10
22966;DHT22;11649;48.090;9.754;2023-06-26T12:44:30;27.90;45.50
22966;DHT22;11649;48.090;9.754;2023-06-26T12:47:02;27.70;45.70
22966;DHT22;11649;48.090;9.754;2023-06-26T12:49:37;27.50;50.20
22966;DHT22;11649;48.090;9.754;2023-06-26T12:52:06;26.80;62.50
22966;DHT22;11649;48.090;9.754;2023-06-26T12:54:42;24.30;99.90
22966;DHT22;11649;48.090;9.754;2023-06-26T12:57:09;21.50;99.90
22966;DHT22;11649;48.090;9.754;2023-06-26T12:59:37;19.90;99.90
22966;DHT22;11649;48.090;9.754;2023-06-26T13:02:04;19.40;99.90
22966;DHT22;11649;48.090;9.754;2023-06-26T13:04:32;19.60;99.90
22966;DHT22;11649;48.090;9.754;2023-06-26T13:06:59;19.80;99.90
22966;DHT22;11649;48.090;9.754;2023-06-26T13:09:27;20.00;99.90
22966;DHT22;11649;48.090;9.754;2023-06-26T13:11:54;20.70;99.90
22966;DHT22;11649;48.090;9.754;2023-06-26T13:14:21;21.00;99.90
22966;DHT22;11649;48.090;9.754;2023-06-26T13:16:48;21.50;99.90
22966;DHT22;11649;48.090;9.754;2023-06-26T13:19:15;22.20;99.90
22966;DHT22;11649;48.090;9.754;2023-06-26T13:21:42;22.90;99.90
22966;DHT22;11649;48.090;9.754;2023-06-26T13:24:09;23.20;99.90
22966;DHT22;11649;48.090;9.754;2023-06-26T13:26:36;23.20;99.90
22966;DHT22;11649;48.090;9.754;2023-06-26T13:29:04;22.50;99.90
22966;DHT22;11649;48.090;9.754;2023-06-26T13:31:32;22.50;99.90
22966;DHT22;11649;48.090;9.754;2023-06-26T13:33:59;22.60;99.90
22966;DHT22;11649;48.090;9.754;2023-06-26T13:36:26;22.30;99.90
22966;DHT22;11649;48.090;9.754;2023-06-26T13:38:54;22.20;99.90
22966;DHT22;11649;48.090;9.754;2023-06-26T13:41:25;22.10;99.90
22966;DHT22;11649;48.090;9.754;2023-06-26T13:43:57;22.20;99.90
22966;DHT22;11649;48.090;9.754;2023-06-26T13:46:32;22.10;99.90
22966;DHT22;11649;48.090;9.754;2023-06-26T13:48:59;22.10;99.90
22966;DHT22;11649;48.090;9.754;2023-06-26T13:51:26;22.10;99.90
22966;DHT22;11649;48.090;9.754;2023-06-26T13:54:01;22.30;99.90
22966;DHT22;11649;48.090;9.754;2023-06-26T13:56:30;23.20;99.90
22966;DHT22;11649;48.090;9.754;2023-06-26T13:58:57;24.30;99.90
22966;DHT22;11649;48.090;9.754;2023-06-26T14:01:25;25.20;99.90
22966;DHT22;11649;48.090;9.754;2023-06-26T14:03:52;26.00;99.90
22966;DHT22;11649;48.090;9.754;2023-06-26T14:06:19;26.30;99.90
22966;DHT22;11649;48.090;9.754;2023-06-26T14:08:46;26.00;99.90
22966;DHT22;11649;48.090;9.754;2023-06-26T14:11:12;25.40;99.90
22966;DHT22;11649;48.090;9.754;2023-06-26T14:13:39;25.10;99.90
22966;DHT22;11649;48.090;9.754;2023-06-26T14:16:06;25.50;99.90
22966;DHT22;11649;48.090;9.754;2023-06-26T14:18:33;26.00;99.90
22966;DHT22;11649;48.090;9.754;2023-06-26T14:21:01;26.50;99.90
22966;DHT22;11649;48.090;9.754;2023-06-26T14:23:28;26.70;99.90
22966;DHT22;11649;48.090;9.754;2023-06-26T14:25:55;27.20;99.90
22966;DHT22;11649;48.090;9.754;2023-06-26T14:28:22;27.70;99.90
22966;DHT22;11649;48.090;9.754;2023-06-26T14:30:49;28.40;99.90
22966;DHT22;11649;48.090;9.754;2023-06-26T14:33:15;29.10;92.00
22966;DHT22;11649;48.090;9.754;2023-06-26T14:35:42;29.20;91.00
22966;DHT22;11649;48.090;9.754;2023-06-26T14:38:09;29.10;85.90
22966;DHT22;11649;48.090;9.754;2023-06-26T14:40:36;28.30;88.80
22966;DHT22;11649;48.090;9.754;2023-06-26T14:43:04;27.40;92.80
22966;DHT22;11649;48.090;9.754;2023-06-26T14:45:31;27.10;93.70
22966;DHT22;11649;48.090;9.754;2023-06-26T14:47:58;28.00;95.10
22966;DHT22;11649;48.090;9.754;2023-06-26T14:50:25;28.40;80.50
22966;DHT22;11649;48.090;9.754;2023-06-26T14:52:51;28.40;84.50
22966;DHT22;11649;48.090;9.754;2023-06-26T14:55:18;28.10;85.20
22966;DHT22;11649;48.090;9.754;2023-06-26T14:57:45;27.10;83.30
22966;DHT22;11649;48.090;9.754;2023-06-26T15:00:12;26.20;88.20
22966;DHT22;11649;48.090;9.754;2023-06-26T15:02:39;25.80;94.60
22966;DHT22;11649;48.090;9.754;2023-06-26T15:05:07;25.50;96.20
22966;DHT22;11649;48.090;9.754;2023-06-26T15:07:34;25.30;94.90
22966;DHT22;11649;48.090;9.754;2023-06-26T15:10:00;24.90;99.90
22966;DHT22;11649;48.090;9.754;2023-06-26T15:12:28;24.60;99.90
22966;DHT22;11649;48.090;9.754;2023-06-26T15:14:54;24.10;99.90
22966;DHT22;11649;48.090;9.754;2023-06-26T15:17:22;23.30;99.90
22966;DHT22;11649;48.090;9.754;2023-06-26T15:19:49;22.80;99.90
22966;DHT22;11649;48.090;9.754;2023-06-26T15:22:23;22.30;99.90
22966;DHT22;11649;48.090;9.754;2023-06-26T15:24:52;22.10;99.90
22966;DHT22;11649;48.090;9.754;2023-06-26T15:27:19;21.70;99.90
22966;DHT22;11649;48.090;9.754;2023-06-26T15:29:48;21.30;99.90
22966;DHT22;11649;48.090;9.754;2023-06-26T15:32:15;22.20;99.90
22966;DHT22;11649;48.090;9.754;2023-06-26T15:34:43;21.50;99.90
22966;DHT22;11649;48.090;9.754;2023-06-26T15:37:09;21.60;99.90
22966;DHT22;11649;48.090;9.754;2023-06-26T15:39:36;22.00;99.90
22966;DHT22;11649;48.090;9.754;2023-06-26T15:42:06;22.50;99.90
22966;DHT22;11649;48.090;9.754;2023-06-26T15:44:33;22.80;99.90
22966;DHT22;11649;48.090;9.754;2023-06-26T15:47:00;23.10;99.90
22966;DHT22;11649;48.090;9.754;2023-06-26T15:49:27;23.10;99.90
22966;DHT22;11649;48.090;9.754;2023-06-26T15:52:04;22.90;99.90
22966;DHT22;11649;48.090;9.754;2023-06-26T15:54:31;22.90;99.90
22966;DHT22;11649;48.090;9.754;2023-06-26T15:56:58;22.70;99.90
22966;DHT22;11649;48.090;9.754;2023-06-26T15:59:24;22.60;99.90
22966;DHT22;11649;48.090;9.754;2023-06-26T16:01:52;22.60;99.90
22966;DHT22;11649;48.090;9.754;2023-06-26T16:04:24;22.60;99.90